Time;durP1;ratioP1;P1;durP2;ratioP2;P2;SDS_P1;SDS_P2;PMS_P1;PMS_P2;Temp;Humidity;BMP_temperature;BMP_pressure;BME280_temperature;BME280_humidity;BME280_pressure;Samples;Min_cycle;Max_cycle;Signal;HPM_P1;HPM_P2
2021/04/15 00:01:00;;;;;;;10.30;8.65;;;21.50;88.50;;;;;;5073269;28;20024;-61
2021/04/15 00:03:30;;;;;;;9.10;8.30;;;21.60;88.00;;;;;;5073247;28;20081;-60
2021/04/15 00:06:01;;;;;;;9.70;8.75;;;21.60;87.10;;;;;;5073357;28;20020;-61
2021/04/15 00:08:29;;;;;;;9.82;9.07;;;21.70;87.80;;;;;;5073254;28;20481;-61
2021/04/15 00:10:59;;;;;;;8.75;7.85;;;21.90;86.60;;;;;;5073119;28;20059;-61
2021/04/15 00:13:36;;;;;;;8.35;7.53;;;21.80;85.10;;;;;;5073231;28;20029;-61
2021/04/15 00:16:05;;;;;;;8.57;7.72;;;21.80;85.40;;;;;;5073207;28;20052;-61
2021/04/15 00:18:32;;;;;;;8.95;7.78;;;21.80;85.20;;;;;;5073048;28;20389;-61
2021/04/15 00:21:00;;;;;;;9.68;7.97;;;21.80;86.20;;;;;;5073068;28;20012;-61
2021/04/15 00:23:28;;;;;;;7.65;6.85;;;22.10;85.90;;;;;;5073115;28;20480;-61
2021/04/15 00:25:55;;;;;;;7.90;7.10;;;22.10;84.50;;;;;;5072757;28;20078;-59
2021/04/15 00:28:23;;;;;;;8.48;7.63;;;22.10;84.80;;;;;;5073048;28;20016;-60
2021/04/15 00:30:51;;;;;;;8.23;6.82;;;22.00;84.10;;;;;;5072930;28;20025;-60
2021/04/15 00:33:19;;;;;;;8.98;7.97;;;22.20;84.50;;;;;;5072939;28;20028;-60
2021/04/15 00:35:47;;;;;;;8.27;7.25;;;22.10;85.30;;;;;;5072872;28;20020;-60
2021/04/15 00:38:16;;;;;;;8.68;8.02;;;22.20;83.50;;;;;;5072933;28;20392;-60
2021/04/15 00:40:46;;;;;;;7.60;6.72;;;22.30;84.30;;;;;;5072906;28;20036;-60
2021/04/15 00:43:15;;;;;;;9.57;8.77;;;22.40;84.40;;;;;;5073171;28;20024;-60
2021/04/15 00:45:45;;;;;;;9.15;8.32;;;22.50;83.20;;;;;;5072650;28;20420;-60
2021/04/15 00:48:41;;;;;;;8.90;7.95;;;22.50;82.90;;;;;;5071442;28;20052;-60
2021/04/15 00:51:21;;;;;;;9.10;8.40;;;22.40;83.50;;;;;;5072758;28;20029;-60
2021/04/15 00:53:57;;;;;;;9.30;8.15;;;22.80;84.50;;;;;;5072785;28;20020;-60
2021/04/15 00:56:25;;;;;;;8.98;8.13;;;22.70;83.40;;;;;;5072619;28;20491;-60
2021/04/15 00:58:53;;;;;;;8.43;7.53;;;23.00;84.30;;;;;;5072713;28;20029;-61
2021/04/15 01:01:20;;;;;;;8.82;7.65;;;23.00;84.50;;;;;;5072717;28;20472;-61
2021/04/15 01:03:48;;;;;;;8.25;7.20;;;22.80;83.40;;;;;;5072578;28;20024;-60
2021/04/15 01:06:15;;;;;;;9.18;6.75;;;22.90;82.50;;;;;;5072645;28;20025;-60
2021/04/15 01:08:43;;;;;;;7.15;6.50;;;23.10;82.90;;;;;;5072531;28;20021;-61
2021/04/15 01:11:34;;;;;;;7.38;6.07;;;23.30;82.20;;;;;;5072611;28;20056;-60
2021/04/15 01:14:04;;;;;;;8.70;6.13;;;23.30;82.60;;;;;;5072541;28;20024;-60
2021/04/15 01:16:38;;;;;;;8.57;7.97;;;23.10;82.00;;;;;;5072614;28;20028;-60
2021/04/15 01:19:23;;;;;;;7.63;7.13;;;23.30;83.00;;;;;;5072529;28;20083;-60
2021/04/15 01:22:09;;;;;;;8.32;7.72;;;23.30;82.00;;;;;;5072526;28;20496;-64
2021/04/15 01:24:47;;;;;;;5.75;5.35;;;23.20;82.90;;;;;;5072300;28;20389;-61
2021/04/15 01:27:37;;;;;;;5.13;4.45;;;23.00;82.90;;;;;;5072479;28;20028;-61
2021/04/15 01:30:28;;;;;;;12.45;5.47;;;23.40;84.30;;;;;;5072396;28;20021;-61
2021/04/15 01:33:20;;;;;;;9.07;4.80;;;23.40;83.50;;;;;;5072280;28;20031;-61
2021/04/15 01:35:55;;;;;;;7.50;4.40;;;23.80;83.10;;;;;;5072556;28;20146;-60
2021/04/15 01:38:27;;;;;;;5.28;4.55;;;23.60;81.40;;;;;;5074515;28;20033;-61
2021/04/15 01:41:03;;;;;;;7.07;5.70;;;23.60;82.00;;;;;;5075904;28;20032;-62
2021/04/15 01:43:36;;;;;;;6.93;5.10;;;23.40;81.30;;;;;;5075953;28;20055;-61
2021/04/15 01:46:04;;;;;;;6.35;3.95;;;23.90;82.50;;;;;;5075895;28;20021;-61
2021/04/15 01:48:54;;;;;;;5.70;5.18;;;24.30;82.90;;;;;;5075789;28;20391;-61
2021/04/15 01:51:23;;;;;;;5.87;5.43;;;24.20;81.10;;;;;;5075479;28;20024;-61
2021/04/15 01:54:13;;;;;;;5.50;5.00;;;24.40;82.40;;;;;;5075643;28;20029;-61
2021/04/15 01:57:03;;;;;;;6.65;5.07;;;24.80;82.70;;;;;;5075356;28;20560;-61
2021/04/15 01:59:48;;;;;;;6.60;6.07;;;24.40;80.60;;;;;;5075604;28;20031;-61
2021/04/15 02:02:30;;;;;;;5.97;5.45;;;24.50;80.90;;;;;;5075537;28;20032;-61
2021/04/15 02:05:18;;;;;;;5.47;4.97;;;24.40;78.70;;;;;;5075453;28;20044;-61
2021/04/15 02:07:55;;;;;;;5.45;4.50;;;23.90;80.00;;;;;;5075484;28;20021;-61
2021/04/15 02:10:23;;;;;;;5.10;4.60;;;24.20;79.20;;;;;;5075494;28;20025;-61
2021/04/15 02:12:53;;;;;;;7.15;5.22;;;24.40;79.50;;;;;;5075389;28;20017;-60
2021/04/15 02:15:52;;;;;;;6.00;5.15;;;24.70;79.90;;;;;;5075634;28;20477;-60
2021/04/15 02:18:34;;;;;;;6.03;5.50;;;24.80;79.10;;;;;;5074853;28;20044;-61
2021/04/15 02:21:10;;;;;;;6.28;5.78;;;24.40;78.80;;;;;;5075161;28;20036;-60
2021/04/15 02:23:48;;;;;;;6.40;5.82;;;24.80;77.80;;;;;;5074898;28;20024;-58
2021/04/15 02:26:40;;;;;;;6.50;5.90;;;25.00;76.30;;;;;;5075183;28;20499;-60
2021/04/15 02:29:19;;;;;;;7.50;7.00;;;25.00;76.10;;;;;;5067884;28;20515;-60
2021/04/15 02:31:51;;;;;;;7.53;6.93;;;24.80;76.80;;;;;;5074897;28;20406;-60
2021/04/15 02:34:31;;;;;;;6.57;6.07;;;24.60;76.50;;;;;;5074933;28;20553;-60
2021/04/15 02:37:32;;;;;;;7.72;6.55;;;24.70;76.90;;;;;;5075030;28;20094;-60
2021/04/15 02:40:05;;;;;;;6.15;5.65;;;24.80;77.10;;;;;;5063897;28;20524;-60
2021/04/15 02:42:36;;;;;;;5.95;5.40;;;24.80;74.80;;;;;;5074833;28;20085;-60
2021/04/15 02:45:22;;;;;;;5.78;5.20;;;24.70;75.60;;;;;;5074689;28;20021;-61
2021/04/15 02:48:28;;;;;;;6.28;5.68;;;24.90;76.10;;;;;;5074748;28;20024;-60
2021/04/15 02:51:02;;;;;;;6.10;5.35;;;25.00;75.50;;;;;;5072489;28;20035;-61
2021/04/15 02:53:39;;;;;;;5.63;5.10;;;24.60;75.60;;;;;;5074693;28;20013;-60
2021/04/15 02:56:30;;;;;;;6.30;5.72;;;24.50;77.50;;;;;;5074239;28;20041;-61
2021/04/15 02:59:16;;;;;;;5.90;5.47;;;24.60;76.50;;;;;;5066115;28;20451;-60
2021/04/15 03:01:48;;;;;;;8.10;6.30;;;25.00;75.60;;;;;;5074398;28;20024;-61
2021/04/15 03:04:21;;;;;;;6.20;5.60;;;25.40;77.40;;;;;;5074167;28;20029;-60
2021/04/15 03:06:51;;;;;;;6.93;5.63;;;25.20;74.00;;;;;;5074383;28;20016;-62
2021/04/15 03:09:19;;;;;;;6.35;5.70;;;25.40;73.70;;;;;;5072966;28;20028;-60
2021/04/15 03:11:51;;;;;;;7.55;6.90;;;25.10;73.00;;;;;;5074219;28;20016;-60
2021/04/15 03:14:54;;;;;;;6.70;6.20;;;24.70;73.10;;;;;;5074307;28;20025;-60
2021/04/15 03:17:24;;;;;;;6.90;6.35;;;24.70;76.10;;;;;;5071240;28;20040;-62
2021/04/15 03:19:54;;;;;;;;;;;24.70;74.90;;;;;;5073487;28;20020;-61
2021/04/15 03:22:44;;;;;;;7.75;7.00;;;24.60;74.40;;;;;;5074122;28;19904;-61
2021/04/15 03:25:12;;;;;;;6.95;6.43;;;24.70;74.40;;;;;;5074199;28;20021;-60
2021/04/15 03:27:43;;;;;;;8.23;6.95;;;24.80;74.90;;;;;;5073904;28;20031;-61
2021/04/15 03:30:12;;;;;;;;;;;24.50;75.70;;;;;;5074329;28;20035;-58
2021/04/15 03:32:48;;;;;;;7.60;7.05;;;24.60;76.80;;;;;;5072567;28;19980;-61
2021/04/15 03:35:18;;;;;;;6.93;6.28;;;24.30;75.60;;;;;;5073814;28;20082;-61
2021/04/15 03:37:58;;;;;;;7.10;6.50;;;24.50;77.60;;;;;;5073688;28;20031;-62
2021/04/15 03:40:32;;;;;;;7.22;6.80;;;24.70;77.00;;;;;;5073635;28;20500;-61
2021/04/15 03:43:13;;;;;;;6.80;6.07;;;24.60;75.40;;;;;;5073713;28;20096;-61
2021/04/15 03:46:03;;;;;;;6.90;6.30;;;25.00;75.80;;;;;;5073614;28;20441;-61
2021/04/15 03:48:41;;;;;;;8.23;7.50;;;25.40;76.00;;;;;;5063512;28;20060;-60
2021/04/15 03:51:13;;;;;;;7.72;6.97;;;25.40;75.70;;;;;;5073616;28;20092;-59
2021/04/15 03:53:49;;;;;;;8.10;7.60;;;25.80;75.50;;;;;;5072343;28;20025;-60
2021/04/15 03:56:49;;;;;;;7.93;7.22;;;26.10;74.90;;;;;;5073660;28;20529;-60
2021/04/15 03:59:23;;;;;;;8.57;7.30;;;26.30;74.90;;;;;;5073119;28;20027;-59
2021/04/15 04:01:57;;;;;;;7.38;6.70;;;26.40;75.10;;;;;;5073075;28;20024;-59
2021/04/15 04:04:31;;;;;;;7.38;6.68;;;26.30;75.80;;;;;;5073165;28;20107;-59
2021/04/15 04:07:02;;;;;;;7.93;7.28;;;26.40;75.40;;;;;;5073301;28;20135;-59
2021/04/15 04:09:38;;;;;;;7.53;7.03;;;26.40;75.50;;;;;;5073239;28;20017;-59
2021/04/15 04:12:09;;;;;;;7.15;6.68;;;26.50;75.70;;;;;;5073205;28;20362;-59
2021/04/15 04:15:02;;;;;;;8.00;7.38;;;26.10;74.20;;;;;;5073154;28;20021;-59
2021/04/15 04:17:43;;;;;;;7.90;7.20;;;26.20;74.40;;;;;;5073124;28;20031;-59
2021/04/15 04:20:13;;;;;;;7.78;7.22;;;26.30;74.60;;;;;;5073043;28;20107;-59
2021/04/15 04:22:58;;;;;;;6.43;5.38;;;25.90;74.20;;;;;;5072967;28;20021;-59
2021/04/15 04:25:35;;;;;;;7.82;7.10;;;26.20;75.10;;;;;;5073011;28;20035;-59
2021/04/15 04:28:17;;;;;;;6.53;6.10;;;25.90;73.90;;;;;;5073029;28;20431;-60
2021/04/15 04:30:50;;;;;;;7.10;5.85;;;25.90;74.00;;;;;;5073027;28;20016;-59
2021/04/15 04:33:21;;;;;;;7.35;6.75;;;26.00;74.90;;;;;;5072959;28;20021;-60
2021/04/15 04:35:50;;;;;;;7.05;6.45;;;26.10;73.30;;;;;;5072904;28;20027;-60
2021/04/15 04:38:21;;;;;;;8.57;6.70;;;26.20;75.60;;;;;;5073041;28;20024;-62
2021/04/15 04:40:57;;;;;;;;;;;26.10;74.80;;;;;;5073070;28;20055;-59
2021/04/15 04:43:37;;;;;;;7.28;6.72;;;26.20;74.80;;;;;;5072901;28;19970;-60
2021/04/15 04:46:17;;;;;;;8.68;7.93;;;26.10;76.40;;;;;;5072911;28;20021;-60
2021/04/15 04:48:53;;;;;;;9.32;8.63;;;25.90;75.30;;;;;;5072946;28;20053;-60
2021/04/15 04:51:22;;;;;;;8.85;7.97;;;25.70;74.80;;;;;;5072710;28;20108;-59
2021/04/15 04:53:51;;;;;;;9.15;8.05;;;25.40;74.10;;;;;;5072889;28;20056;-59
2021/04/15 04:56:35;;;;;;;8.27;7.38;;;25.50;75.60;;;;;;5072722;28;20017;-60
2021/04/15 04:59:37;;;;;;;8.48;7.70;;;25.50;75.10;;;;;;5072554;28;20024;-60
2021/04/15 05:02:05;;;;;;;7.97;7.45;;;25.40;76.50;;;;;;5062142;28;20040;-59
2021/04/15 05:04:36;;;;;;;10.93;8.18;;;25.60;78.40;;;;;;5072523;28;20394;-60
2021/04/15 05:07:11;;;;;;;8.30;7.57;;;25.50;75.30;;;;;;5072533;28;20024;-59
2021/04/15 05:09:41;;;;;;;8.48;7.68;;;25.40;76.30;;;;;;5072594;28;20020;-59
2021/04/15 05:12:25;;;;;;;8.10;7.40;;;25.70;77.40;;;;;;5073237;28;20062;-59
2021/04/15 05:14:57;;;;;;;7.93;7.28;;;25.70;76.20;;;;;;5076414;28;20030;-59
2021/04/15 05:17:34;;;;;;;7.50;6.90;;;25.80;79.60;;;;;;5076309;28;20435;-58
2021/04/15 05:20:08;;;;;;;7.68;6.78;;;25.60;75.50;;;;;;5076416;28;20017;-59
2021/04/15 05:22:48;;;;;;;7.05;6.50;;;25.60;76.60;;;;;;5076218;28;20056;-60
2021/04/15 05:25:37;;;;;;;9.27;6.60;;;25.50;75.50;;;;;;5076367;28;20024;-59
2021/04/15 05:28:08;;;;;;;6.90;6.50;;;25.50;75.20;;;;;;5076220;28;20020;-59
2021/04/15 05:30:46;;;;;;;6.35;5.85;;;25.40;74.90;;;;;;5076023;28;20472;-59
2021/04/15 05:33:21;;;;;;;9.35;7.30;;;25.40;75.20;;;;;;5075931;28;20369;-59
2021/04/15 05:36:08;;;;;;;6.97;5.50;;;25.40;75.30;;;;;;5075995;28;20021;-59
2021/04/15 05:38:56;;;;;;;7.65;7.15;;;25.50;75.20;;;;;;5075781;28;20032;-59
2021/04/15 05:41:32;;;;;;;4.78;4.50;;;25.60;74.00;;;;;;5075855;28;20088;-58
2021/04/15 05:44:18;;;;;;;5.22;4.72;;;25.30;75.00;;;;;;5075792;28;20035;-59
2021/04/15 05:46:50;;;;;;;8.20;7.50;;;25.30;77.20;;;;;;5075800;28;20020;-59
2021/04/15 05:49:43;;;;;;;6.13;5.53;;;25.10;84.00;;;;;;5075742;28;20020;-58
2021/04/15 05:52:28;;;;;;;9.27;8.23;;;24.60;90.00;;;;;;5067512;28;20090;-59
2021/04/15 05:55:04;;;;;;;8.15;7.55;;;24.40;91.20;;;;;;5075602;28;20389;-59
2021/04/15 05:57:39;;;;;;;6.68;5.93;;;24.30;91.60;;;;;;5075774;28;20104;-59
2021/04/15 06:00:28;;;;;;;9.60;8.60;;;24.40;91.70;;;;;;5075529;28;20025;-60
2021/04/15 06:03:11;;;;;;;8.70;7.90;;;24.30;92.00;;;;;;5075488;28;20024;-60
2021/04/15 06:05:52;;;;;;;8.82;8.23;;;24.20;92.00;;;;;;5075316;28;20032;-60
2021/04/15 06:08:20;;;;;;;11.50;8.70;;;24.00;92.20;;;;;;5075326;28;20017;-60
2021/04/15 06:10:50;;;;;;;9.35;8.60;;;23.90;92.80;;;;;;5075405;28;20023;-59
2021/04/15 06:13:24;;;;;;;9.50;8.90;;;23.60;93.60;;;;;;5075333;28;20017;-60
2021/04/15 06:15:59;;;;;;;10.05;9.10;;;23.60;93.50;;;;;;5075367;28;20020;-60
2021/04/15 06:18:52;;;;;;;8.52;7.80;;;23.50;93.40;;;;;;5075202;28;20048;-60
2021/04/15 06:21:29;;;;;;;8.93;8.40;;;23.50;93.70;;;;;;5075359;28;20071;-59
2021/04/15 06:24:22;;;;;;;9.98;9.20;;;23.40;93.90;;;;;;5074591;28;20443;-61
2021/04/15 06:26:53;;;;;;;9.52;8.63;;;23.20;93.80;;;;;;5075284;28;20059;-61
2021/04/15 06:29:57;;;;;;;10.02;9.10;;;23.30;94.00;;;;;;5075090;28;20055;-61
2021/04/15 06:32:34;;;;;;;9.65;8.93;;;23.10;94.10;;;;;;5074959;28;20096;-61
2021/04/15 06:35:01;;;;;;;9.60;8.90;;;23.00;94.50;;;;;;5073746;28;20475;-60
2021/04/15 06:37:37;;;;;;;10.45;9.60;;;22.90;94.60;;;;;;5074968;28;20021;-59
2021/04/15 06:40:13;;;;;;;9.30;8.40;;;22.80;95.20;;;;;;5074817;28;20080;-59
2021/04/15 06:42:55;;;;;;;9.40;8.45;;;22.60;95.50;;;;;;5075084;28;20381;-59
2021/04/15 06:45:40;;;;;;;8.95;8.27;;;22.70;95.50;;;;;;5074535;28;20111;-61
2021/04/15 06:48:47;;;;;;;8.63;7.93;;;22.70;95.20;;;;;;5074615;28;20036;-61
2021/04/15 06:51:42;;;;;;;9.10;8.23;;;22.60;95.50;;;;;;5042790;28;20484;-60
2021/04/15 06:54:09;;;;;;;7.10;5.50;;;22.40;95.80;;;;;;5074373;28;20025;-59
2021/04/15 06:57:13;;;;;;;8.25;7.63;;;22.40;95.90;;;;;;5074344;28;20017;-60
2021/04/15 06:59:58;;;;;;;7.72;6.40;;;22.40;96.20;;;;;;5074331;28;20017;-61
2021/04/15 07:02:32;;;;;;;8.18;7.40;;;22.10;96.10;;;;;;5074281;28;20031;-61
2021/04/15 07:05:23;;;;;;;6.40;5.80;;;22.00;96.40;;;;;;5073986;28;20039;-61
2021/04/15 07:08:20;;;;;;;8.00;7.40;;;21.70;97.00;;;;;;5074025;28;20021;-60
2021/04/15 07:11:11;;;;;;;7.82;7.10;;;21.50;97.00;;;;;;5045698;28;20052;-60
2021/04/15 07:14:13;;;;;;;7.70;7.00;;;21.50;97.30;;;;;;5073991;28;20096;-60
2021/04/15 07:16:52;;;;;;;8.30;7.03;;;21.40;97.50;;;;;;5071140;28;20040;-60
2021/04/15 07:19:52;;;;;;;8.13;7.30;;;21.20;97.70;;;;;;5073958;28;20066;-60
2021/04/15 07:22:52;;;;;;;7.77;7.17;;;21.10;98.20;;;;;;5073875;28;20025;-60
2021/04/15 07:25:37;;;;;;;;;;;21.00;98.40;;;;;;5074069;28;20450;-60
2021/04/15 07:28:17;;;;;;;8.63;8.02;;;20.90;98.40;;;;;;5073910;28;19911;-59
2021/04/15 07:30:50;;;;;;;7.45;6.82;;;20.80;98.80;;;;;;5072538;28;20020;-60
2021/04/15 07:33:35;;;;;;;7.97;6.80;;;20.70;99.00;;;;;;5073748;28;20067;-61
2021/04/15 07:36:25;;;;;;;7.65;6.85;;;20.60;99.40;;;;;;5073079;28;20021;-63
2021/04/15 07:39:28;;;;;;;8.27;7.32;;;20.50;99.50;;;;;;5073417;28;20116;-61
2021/04/15 07:42:07;;;;;;;8.77;6.72;;;20.50;99.80;;;;;;5019391;28;20433;-61
2021/04/15 07:44:41;;;;;;;7.93;7.32;;;20.50;99.90;;;;;;5073562;28;20025;-62
2021/04/15 07:48:04;;;;;;;8.18;7.40;;;20.40;99.90;;;;;;5073598;28;20066;-61
2021/04/15 07:50:59;;;;;;;8.00;7.20;;;20.30;99.90;;;;;;5050022;28;20040;-62
2021/04/15 07:53:53;;;;;;;7.28;6.68;;;20.10;99.90;;;;;;5073386;28;20051;-60
2021/04/15 07:56:47;;;;;;;8.18;7.30;;;20.00;99.90;;;;;;5073358;28;20046;-60
2021/04/15 07:59:47;;;;;;;8.32;6.47;;;20.00;99.90;;;;;;5071884;28;20021;-61
2021/04/15 08:02:38;;;;;;;7.10;6.40;;;20.00;99.90;;;;;;5073246;28;20024;-60
2021/04/15 08:05:11;;;;;;;8.50;6.75;;;20.00;99.90;;;;;;5073083;28;20427;-61
2021/04/15 08:08:06;;;;;;;7.22;6.55;;;20.00;99.90;;;;;;5073547;28;20477;-61
2021/04/15 08:10:43;;;;;;;7.03;6.38;;;20.00;99.90;;;;;;5072919;28;20017;-60
2021/04/15 08:13:52;;;;;;;9.68;6.50;;;20.00;99.90;;;;;;5071978;28;20044;-61
2021/04/15 08:16:48;;;;;;;7.63;6.95;;;19.90;99.90;;;;;;5073129;28;20021;-60
2021/04/15 08:19:30;;;;;;;10.23;8.57;;;19.80;99.90;;;;;;5019333;28;20038;-63
2021/04/15 08:22:17;;;;;;;8.38;7.10;;;19.70;99.90;;;;;;5071786;28;20021;-60
2021/04/15 08:25:07;;;;;;;9.48;8.68;;;19.60;99.90;;;;;;5072787;28;20481;-61
2021/04/15 08:27:55;;;;;;;9.25;8.32;;;19.60;99.90;;;;;;5073042;28;20024;-61
2021/04/15 08:31:07;;;;;;;10.50;8.35;;;19.70;99.90;;;;;;5072958;28;20095;-61
2021/04/15 08:34:07;;;;;;;9.10;8.25;;;19.70;99.90;;;;;;5044647;28;20051;-61
2021/04/15 08:37:05;;;;;;;8.30;7.78;;;19.60;99.90;;;;;;5072895;28;20031;-61
2021/04/15 08:39:55;;;;;;;8.48;7.68;;;19.50;99.90;;;;;;5072751;28;20060;-60
2021/04/15 08:42:58;;;;;;;8.27;7.78;;;19.40;99.90;;;;;;5072795;28;20027;-60
2021/04/15 08:45:34;;;;;;;8.65;7.88;;;19.40;99.90;;;;;;5072569;28;20388;-60
2021/04/15 08:48:12;;;;;;;11.93;7.47;;;19.40;99.90;;;;;;5078959;28;20025;-60
2021/04/15 08:51:00;;;;;;;6.68;6.07;;;19.40;99.90;;;;;;5079396;28;20017;-60
2021/04/15 08:53:46;;;;;;;8.52;7.53;;;19.40;99.90;;;;;;5078090;28;20413;-61
2021/04/15 08:56:20;;;;;;;7.85;7.30;;;19.40;99.90;;;;;;5079335;28;20021;-59
2021/04/15 08:58:59;;;;;;;8.50;7.00;;;19.50;99.90;;;;;;5077999;28;20047;-61
2021/04/15 09:01:27;;;;;;;8.00;7.38;;;19.50;99.90;;;;;;5079214;28;20025;-60
2021/04/15 09:03:58;;;;;;;9.60;7.80;;;19.50;99.90;;;;;;5079159;28;20521;-61
2021/04/15 09:06:56;;;;;;;8.15;7.35;;;19.50;99.90;;;;;;5079221;28;20377;-59
2021/04/15 09:09:50;;;;;;;9.13;8.32;;;19.50;99.90;;;;;;5079061;28;20028;-59
2021/04/15 09:12:39;;;;;;;9.27;8.63;;;19.50;99.90;;;;;;5077806;28;20035;-60
2021/04/15 09:15:21;;;;;;;10.32;9.52;;;19.50;99.90;;;;;;5079164;28;20119;-60
2021/04/15 09:17:54;;;;;;;9.15;8.45;;;19.40;99.90;;;;;;5079173;28;20024;-60
2021/04/15 09:20:45;;;;;;;10.68;9.77;;;19.40;99.90;;;;;;5079160;28;20058;-60
2021/04/15 09:23:31;;;;;;;12.20;11.05;;;19.30;99.90;;;;;;5078761;28;20037;-62
2021/04/15 09:26:15;;;;;;;11.02;10.00;;;19.20;99.90;;;;;;5079031;28;20048;-61
2021/04/15 09:28:48;;;;;;;10.38;9.68;;;19.20;99.90;;;;;;5079162;28;20017;-60
2021/04/15 09:31:51;;;;;;;10.60;9.73;;;19.30;99.90;;;;;;5079373;28;20051;-60
2021/04/15 09:34:24;;;;;;;10.30;9.40;;;19.20;99.90;;;;;;5077685;28;20025;-60
2021/04/15 09:36:54;;;;;;;10.88;10.00;;;19.20;99.90;;;;;;5079091;28;20025;-60
2021/04/15 09:39:42;;;;;;;10.55;9.07;;;19.20;99.90;;;;;;5078920;28;20048;-60
2021/04/15 09:42:27;;;;;;;10.52;9.27;;;19.20;99.90;;;;;;5079027;28;20418;-61
2021/04/15 09:45:10;;;;;;;9.88;8.88;;;19.20;99.90;;;;;;5078936;28;20370;-60
2021/04/15 09:48:00;;;;;;;10.38;9.38;;;19.20;99.90;;;;;;5078995;28;20044;-60
2021/04/15 09:50:50;;;;;;;9.05;8.15;;;19.30;99.90;;;;;;5063624;28;20028;-60
2021/04/15 09:53:38;;;;;;;8.90;8.13;;;19.30;99.90;;;;;;5078960;28;20033;-59
2021/04/15 09:56:12;;;;;;;8.50;7.38;;;19.20;99.90;;;;;;5078929;28;20095;-60
2021/04/15 09:59:03;;;;;;;9.07;8.27;;;19.30;99.90;;;;;;5076197;28;20032;-60
2021/04/15 10:01:40;;;;;;;;;;;19.40;99.90;;;;;;5076138;28;20016;-61
2021/04/15 10:04:25;;;;;;;6.60;6.00;;;19.50;99.90;;;;;;5075554;28;19909;-61
2021/04/15 10:06:59;;;;;;;8.60;6.45;;;19.60;99.90;;;;;;5075443;28;20503;-60
2021/04/15 10:09:45;;;;;;;7.25;5.55;;;19.60;99.90;;;;;;5075491;28;20013;-60
2021/04/15 10:12:18;;;;;;;7.95;5.80;;;19.60;99.50;;;;;;5075518;28;20358;-60
2021/04/15 10:15:07;;;;;;;6.40;5.78;;;19.50;98.90;;;;;;5074184;28;20024;-60
2021/04/15 10:17:53;;;;;;;7.25;5.60;;;19.50;98.10;;;;;;5075464;28;20028;-60
2021/04/15 10:20:28;;;;;;;8.80;7.97;;;19.50;96.00;;;;;;5075249;28;20029;-60
2021/04/15 10:23:32;;;;;;;9.23;8.00;;;19.60;95.70;;;;;;5075147;28;20538;-60
2021/04/15 10:26:11;;;;;;;8.20;7.40;;;19.70;95.20;;;;;;5075028;28;20021;-60
2021/04/15 10:28:44;;;;;;;7.80;6.80;;;19.70;95.40;;;;;;5075225;28;20058;-60
2021/04/15 10:31:20;;;;;;;6.75;6.15;;;19.70;94.30;;;;;;5075287;28;20515;-61
2021/04/15 10:34:18;;;;;;;8.40;7.07;;;19.80;93.90;;;;;;5075051;28;20051;-61
2021/04/15 10:36:51;;;;;;;7.25;6.55;;;19.80;93.80;;;;;;5074929;28;20013;-60
2021/04/15 10:39:45;;;;;;;7.60;6.60;;;19.90;94.00;;;;;;5074778;28;20051;-61
2021/04/15 10:42:40;;;;;;;7.68;7.10;;;19.90;94.00;;;;;;5074890;28;20103;-61
2021/04/15 10:45:57;;;;;;;11.05;7.10;;;19.90;93.50;;;;;;5074871;28;20154;-61
2021/04/15 10:48:43;;;;;;;5.65;5.20;;;19.90;93.60;;;;;;5012939;28;20100;-64
2021/04/15 10:51:49;;;;;;;6.13;4.28;;;20.00;93.30;;;;;;5074791;28;20021;-60
2021/04/15 10:54:41;;;;;;;4.90;4.20;;;20.00;92.80;;;;;;5074561;28;20108;-60
2021/04/15 10:57:21;;;;;;;8.80;7.65;;;20.00;92.20;;;;;;5074713;28;20028;-61
2021/04/15 10:59:51;;;;;;;8.82;8.02;;;20.00;92.50;;;;;;5074559;28;20021;-61
2021/04/15 11:02:18;;;;;;;;;;;19.90;92.70;;;;;;5074891;28;20028;-61
2021/04/15 11:04:46;;;;;;;7.68;7.05;;;19.90;92.70;;;;;;5074323;28;19909;-60
2021/04/15 11:07:18;;;;;;;7.35;6.63;;;19.90;92.40;;;;;;5074311;28;20017;-61
2021/04/15 11:09:48;;;;;;;8.57;7.15;;;19.90;92.50;;;;;;5073065;28;20032;-60
2021/04/15 11:12:16;;;;;;;8.00;6.43;;;19.90;92.40;;;;;;5074001;28;20028;-61
2021/04/15 11:14:46;;;;;;;5.82;5.00;;;19.90;92.00;;;;;;5074094;28;20456;-60
2021/04/15 11:17:35;;;;;;;7.15;4.40;;;20.00;92.10;;;;;;5074155;28;20487;-59
2021/04/15 11:20:14;;;;;;;9.55;6.20;;;20.00;91.70;;;;;;5074215;28;20032;-59
2021/04/15 11:22:54;;;;;;;6.68;4.82;;;20.00;91.80;;;;;;5074074;28;20025;-61
2021/04/15 11:25:36;;;;;;;9.32;5.45;;;19.90;91.80;;;;;;5073983;28;20390;-60
2021/04/15 11:28:18;;;;;;;6.07;4.45;;;19.90;91.70;;;;;;5074155;28;20499;-59
2021/04/15 11:30:52;;;;;;;9.00;7.15;;;19.90;91.90;;;;;;5074066;28;20020;-60
2021/04/15 11:33:43;;;;;;;7.28;6.60;;;19.80;92.00;;;;;;5073883;28;20044;-60
2021/04/15 11:36:32;;;;;;;9.23;6.32;;;19.70;92.10;;;;;;5073805;28;20512;-60
2021/04/15 11:39:05;;;;;;;8.45;6.95;;;19.70;92.00;;;;;;5073517;28;20188;-60
2021/04/15 11:41:51;;;;;;;8.43;7.55;;;19.60;92.30;;;;;;5073717;28;20024;-59
2021/04/15 11:44:44;;;;;;;6.50;5.85;;;19.60;92.10;;;;;;5073539;28;20028;-61
2021/04/15 11:47:29;;;;;;;7.30;6.60;;;19.60;92.00;;;;;;5073567;28;20031;-60
2021/04/15 11:50:11;;;;;;;5.57;4.70;;;19.40;92.40;;;;;;5073705;28;20044;-60
2021/04/15 11:52:45;;;;;;;6.50;5.20;;;19.40;92.40;;;;;;5072136;28;20389;-60
2021/04/15 11:55:35;;;;;;;6.93;4.90;;;19.40;92.80;;;;;;5072187;28;20484;-61
2021/04/15 11:58:06;;;;;;;7.70;5.53;;;19.40;92.20;;;;;;5073477;28;20552;-60
2021/04/15 12:00:46;;;;;;;8.60;5.07;;;19.40;91.90;;;;;;5073361;28;20020;-60
2021/04/15 12:03:21;;;;;;;5.85;5.22;;;19.40;91.90;;;;;;5073251;28;20032;-60
2021/04/15 12:05:50;;;;;;;6.82;5.43;;;19.40;92.00;;;;;;5071979;28;20392;-60
2021/04/15 12:08:30;;;;;;;8.32;6.40;;;19.40;91.90;;;;;;5073273;28;20032;-59
2021/04/15 12:11:24;;;;;;;8.23;6.83;;;19.40;91.90;;;;;;5073279;28;20036;-59
2021/04/15 12:14:00;;;;;;;10.65;7.40;;;19.40;91.90;;;;;;5073232;28;20245;-60
2021/04/15 12:17:03;;;;;;;8.52;7.05;;;19.40;91.60;;;;;;5073190;28;20484;-62
2021/04/15 12:19:48;;;;;;;8.10;7.03;;;19.40;91.40;;;;;;5073431;28;20027;-61
2021/04/15 12:22:53;;;;;;;8.40;6.90;;;19.40;91.30;;;;;;5072896;28;20378;-60
2021/04/15 12:25:41;;;;;;;10.88;7.50;;;19.30;91.50;;;;;;5023013;28;20036;-60
2021/04/15 12:28:34;;;;;;;8.20;7.00;;;19.20;91.60;;;;;;5073169;28;20028;-60
2021/04/15 12:31:43;;;;;;;9.65;7.60;;;19.20;91.70;;;;;;5070613;28;20160;-59
2021/04/15 12:34:25;;;;;;;8.63;7.18;;;19.10;91.70;;;;;;5043547;28;20100;-61
2021/04/15 12:37:18;;;;;;;10.00;7.50;;;19.20;91.50;;;;;;5073070;28;20396;-61
2021/04/15 12:40:03;;;;;;;8.68;7.68;;;19.20;91.70;;;;;;5072894;28;20048;-59
2021/04/15 12:42:36;;;;;;;9.05;7.00;;;19.20;91.50;;;;;;5072973;28;20431;-59
2021/04/15 12:45:23;;;;;;;10.82;7.68;;;19.10;91.60;;;;;;5072939;28;20024;-60
2021/04/15 12:47:52;;;;;;;8.23;7.45;;;19.20;91.40;;;;;;5073005;28;20047;-59
2021/04/15 12:50:20;;;;;;;8.15;7.30;;;19.20;91.70;;;;;;5072895;28;20016;-61
2021/04/15 12:52:50;;;;;;;8.80;7.30;;;19.20;91.70;;;;;;5072932;28;20024;-60
2021/04/15 12:55:20;;;;;;;8.00;7.25;;;19.20;91.60;;;;;;5071715;28;20400;-61
2021/04/15 12:57:49;;;;;;;7.70;6.97;;;19.20;91.10;;;;;;5071515;28;20031;-60
2021/04/15 13:00:47;;;;;;;8.25;7.50;;;19.20;91.00;;;;;;5072876;28;20028;-59
2021/04/15 13:03:30;;;;;;;8.43;7.50;;;19.40;90.60;;;;;;5059757;28;20149;-60
2021/04/15 13:06:01;;;;;;;8.95;8.05;;;19.50;90.50;;;;;;5072927;28;20056;-60
2021/04/15 13:08:42;;;;;;;8.20;7.50;;;19.40;90.30;;;;;;5072978;28;20021;-59
2021/04/15 13:11:18;;;;;;;9.18;8.15;;;19.40;90.20;;;;;;5072700;28;20028;-59
2021/04/15 13:13:47;;;;;;;8.43;7.45;;;19.40;90.40;;;;;;5071327;28;20021;-60
2021/04/15 13:16:35;;;;;;;9.60;8.32;;;19.40;90.20;;;;;;5072599;28;20036;-60
2021/04/15 13:19:09;;;;;;;8.48;7.30;;;19.30;90.40;;;;;;5072602;28;20029;-60
2021/04/15 13:21:56;;;;;;;10.85;8.25;;;19.20;90.40;;;;;;5072637;28;20429;-59
2021/04/15 13:24:44;;;;;;;8.63;7.60;;;19.20;90.50;;;;;;5072510;28;20028;-59
2021/04/15 13:27:36;;;;;;;7.57;6.88;;;19.10;91.00;;;;;;5072743;28;20020;-59
2021/04/15 13:30:24;;;;;;;7.93;7.22;;;19.10;90.70;;;;;;5072469;28;20040;-60
2021/04/15 13:33:10;;;;;;;8.63;6.88;;;19.00;90.90;;;;;;5072456;28;20016;-60
2021/04/15 13:35:47;;;;;;;7.95;6.97;;;19.00;91.00;;;;;;5076227;28;20058;-60
2021/04/15 13:39:03;;;;;;;10.13;7.20;;;19.00;91.00;;;;;;5076232;28;20439;-61
2021/04/15 13:41:49;;;;;;;9.73;7.20;;;18.90;91.60;;;;;;5071589;28;20075;-61
2021/04/15 13:44:53;;;;;;;7.68;6.65;;;18.70;91.70;;;;;;5076171;28;20442;-60
2021/04/15 13:47:41;;;;;;;8.85;7.22;;;18.70;91.70;;;;;;5076228;28;20025;-60
2021/04/15 13:50:09;;;;;;;9.13;7.63;;;18.80;91.40;;;;;;5076038;28;20017;-61
2021/04/15 13:52:37;;;;;;;8.77;7.75;;;18.70;91.50;;;;;;5076002;28;20113;-60
2021/04/15 13:55:41;;;;;;;11.93;7.82;;;18.70;91.30;;;;;;5075856;28;20048;-60
2021/04/15 13:58:11;;;;;;;7.65;6.93;;;18.70;91.50;;;;;;5075878;28;20481;-60
2021/04/15 14:00:44;;;;;;;9.52;7.60;;;18.70;91.40;;;;;;5075915;28;20150;-61